Time;durP1;ratioP1;P1;durP2;ratioP2;P2;SDS_P1;SDS_P2;PMS_P1;PMS_P2;Temp;Humidity;BMP_temperature;BMP_pressure;BME280_temperature;BME280_humidity;BME280_pressure;Samples;Min_cycle;Max_cycle;Signal;HPM_P1;HPM_P2
2021/10/08 00:01:52;;;;;;;6.03;3.57;;;;;;;11.23;100.00;95350.94;5071719;28;20484;-79
2021/10/08 00:04:19;;;;;;;7.20;4.20;;;;;;;11.44;100.00;95349.22;5074558;28;20455;-78
2021/10/08 00:06:46;;;;;;;3.97;3.67;;;;;;;11.51;100.00;95355.63;5076022;28;20445;-78
2021/10/08 00:09:13;;;;;;;3.70;3.40;;;;;;;11.59;100.00;95353.25;5075804;28;20962;-78
2021/10/08 00:11:40;;;;;;;3.57;3.27;;;;;;;11.67;100.00;95349.97;5075566;28;20457;-79
2021/10/08 00:14:08;;;;;;;4.27;3.13;;;;;;;11.60;100.00;95349.66;5056777;28;20436;-78
2021/10/08 00:16:35;;;;;;;3.30;3.10;;;;;;;11.73;100.00;95352.94;5075522;28;20448;-78
2021/10/08 00:19:03;;;;;;;3.63;2.80;;;;;;;11.82;100.00;95353.16;5075354;28;20441;-79
2021/10/08 00:21:30;;;;;;;3.27;2.97;;;;;;;11.98;100.00;95354.41;5075099;28;20496;-78
2021/10/08 00:23:57;;;;;;;3.77;3.07;;;;;;;12.09;100.00;95361.41;5075553;28;20468;-78
2021/10/08 00:26:24;;;;;;;3.70;3.43;;;;;;;12.10;100.00;95348.13;5075135;28;20451;-78
2021/10/08 00:28:51;;;;;;;3.53;3.33;;;;;;;12.15;100.00;95347.78;5075341;28;20463;-78
2021/10/08 00:31:19;;;;;;;2.90;2.70;;;;;;;12.15;100.00;95344.31;5056777;28;20447;-78
2021/10/08 00:33:46;;;;;;;3.53;3.23;;;;;;;12.21;100.00;95347.25;5075136;28;20445;-78
2021/10/08 00:36:13;;;;;;;3.30;2.97;;;;;;;12.17;100.00;95348.47;5075117;28;20450;-78
2021/10/08 00:38:40;;;;;;;3.27;3.00;;;;;;;12.17;100.00;95348.47;5075017;28;20458;-79
2021/10/08 00:41:07;;;;;;;3.17;2.87;;;;;;;12.14;100.00;95347.88;5056197;28;20503;-78
2021/10/08 00:43:34;;;;;;;3.20;2.67;;;;;;;11.99;100.00;95339.47;5039680;28;20447;-78
2021/10/08 00:46:01;;;;;;;6.80;3.20;;;;;;;11.97;100.00;95334.34;5075021;28;20473;-79
2021/10/08 00:48:30;;;;;;;3.03;2.60;;;;;;;12.06;100.00;95343.25;5075024;28;20452;-78
2021/10/08 00:50:57;;;;;;;2.13;2.03;;;;;;;12.02;100.00;95355.00;5074927;28;20960;-78
2021/10/08 00:53:24;;;;;;;4.10;2.80;;;;;;;12.06;100.00;95340.63;5074589;28;20452;-78
2021/10/08 00:55:53;;;;;;;3.60;3.30;;;;;;;12.19;100.00;95343.06;5074754;28;20563;-78
2021/10/08 00:58:22;;;;;;;4.80;2.70;;;;;;;12.26;100.00;95345.06;5039516;28;20433;-78
2021/10/08 01:00:50;;;;;;;2.73;2.53;;;;;;;12.34;100.00;95347.03;5074808;28;20452;-78
2021/10/08 01:03:21;;;;;;;3.00;2.80;;;;;;;12.37;100.00;95339.72;5074788;28;20450;-79
2021/10/08 01:05:50;;;;;;;3.20;3.00;;;;;;;12.36;100.00;95338.03;5074498;28;20441;-79
2021/10/08 01:08:18;;;;;;;2.33;2.23;;;;;;;11.95;100.00;95327.53;5074844;28;20453;-78
2021/10/08 01:10:46;;;;;;;3.30;3.00;;;;;;;12.02;100.00;95324.25;5074860;28;20449;-78
2021/10/08 01:13:14;;;;;;;4.97;2.87;;;;;;;12.05;100.00;95317.91;5074567;28;20444;-79
2021/10/08 01:15:41;;;;;;;2.77;2.57;;;;;;;12.15;100.00;95328.53;5054645;28;20426;-79
2021/10/08 01:18:09;;;;;;;2.67;2.47;;;;;;;12.22;100.00;95333.13;5074370;28;20444;-79
2021/10/08 01:20:38;;;;;;;3.30;2.80;;;;;;;12.15;100.00;95344.31;5074208;28;20937;-78
2021/10/08 01:23:05;;;;;;;2.93;2.73;;;;;;;12.17;100.00;95343.22;5074382;28;20481;-78
2021/10/08 01:25:34;;;;;;;2.73;2.57;;;;;;;12.00;100.00;95341.13;5074513;28;20538;-78
2021/10/08 01:28:02;;;;;;;2.97;2.77;;;;;;;11.81;100.00;95347.06;5074133;28;20805;-78
2021/10/08 01:30:29;;;;;;;3.27;3.07;;;;;;;11.85;100.00;95347.66;5073917;28;20448;-78
2021/10/08 01:32:56;;;;;;;3.43;3.13;;;;;;;11.65;100.00;95339.59;5074010;28;20445;-78
2021/10/08 01:35:24;;;;;;;3.63;3.33;;;;;;;11.56;100.00;95332.44;5074029;28;20482;-78
2021/10/08 01:37:52;;;;;;;3.43;3.10;;;;;;;11.56;100.00;95321.09;5074274;28;20487;-78
2021/10/08 01:40:21;;;;;;;4.20;3.90;;;;;;;11.68;100.00;95331.47;5038707;28;20953;-78
2021/10/08 01:42:48;;;;;;;4.77;3.50;;;;;;;11.67;100.00;95329.78;5074512;28;20473;-78
2021/10/08 01:45:16;;;;;;;4.00;3.70;;;;;;;11.48;100.00;95329.63;5073732;28;20521;-78
2021/10/08 01:47:43;;;;;;;7.57;4.07;;;;;;;11.51;100.00;95324.09;5073733;28;20810;-78
2021/10/08 01:50:11;;;;;;;4.67;4.27;;;;;;;11.46;100.00;95318.41;5073743;28;20452;-79
2021/10/08 01:52:38;;;;;;;6.13;5.60;;;;;;;11.28;100.00;95312.84;5073644;28;20447;-78
2021/10/08 01:55:08;;;;;;;5.07;4.67;;;;;;;11.39;100.00;95315.44;5073356;28;20786;-78
2021/10/08 01:57:35;;;;;;;6.87;6.17;;;;;;;11.40;100.00;95311.84;5073616;28;20441;-79
2021/10/08 02:00:01;;;;;;;6.37;5.77;;;;;;;11.29;100.00;95318.94;5054639;28;20441;-78
2021/10/08 02:02:28;;;;;;;9.50;6.00;;;;;;;11.33;100.00;95321.19;5073488;28;20481;-78
2021/10/08 02:04:55;;;;;;;6.07;5.50;;;;;;;11.18;100.00;95307.50;5073327;28;20867;-78
2021/10/08 02:07:22;;;;;;;6.00;5.50;;;;;;;11.11;100.00;95308.94;5073505;28;20541;-78
2021/10/08 02:09:49;;;;;;;5.40;5.00;;;;;;;10.94;100.00;95313.88;5073087;28;20444;-78
2021/10/08 02:12:17;;;;;;;5.10;4.60;;;;;;;10.93;100.00;95326.16;5073548;28;20814;-78
2021/10/08 02:14:44;;;;;;;5.87;5.37;;;;;;;10.74;100.00;95332.03;5073265;28;20441;-78
2021/10/08 02:17:11;;;;;;;7.47;6.57;;;;;;;10.94;100.00;95335.69;5073264;28;20452;-78
2021/10/08 02:19:38;;;;;;;10.33;6.83;;;;;;;10.98;100.00;95337.13;5073468;28;20453;-78
2021/10/08 02:22:05;;;;;;;6.00;5.50;;;;;;;10.96;100.00;95331.16;5072982;28;21007;-78
2021/10/08 02:24:32;;;;;;;7.43;6.10;;;;;;;10.85;100.00;95324.16;5073546;28;20441;-78
2021/10/08 02:26:59;;;;;;;10.33;7.77;;;;;;;10.88;100.00;95324.84;5072682;28;20447;-78
2021/10/08 02:29:28;;;;;;;7.17;6.43;;;;;;;10.83;100.00;95322.59;5072926;28;20536;-78
2021/10/08 02:31:55;;;;;;;8.07;7.37;;;;;;;10.74;100.00;95312.84;5072822;28;20455;-78
2021/10/08 02:34:23;;;;;;;9.53;7.53;;;;;;;10.77;100.00;95323.94;5072691;28;20440;-78
2021/10/08 02:36:50;;;;;;;7.50;6.73;;;;;;;10.64;100.00;95322.38;5072712;28;20955;-78
2021/10/08 02:39:17;;;;;;;7.00;6.30;;;;;;;10.60;100.00;95320.94;5054276;28;20454;-78
2021/10/08 02:41:44;;;;;;;11.17;6.97;;;;;;;10.53;100.00;95321.41;5072520;28;20989;-78
2021/10/08 02:44:11;;;;;;;8.03;6.90;;;;;;;10.45;100.00;95320.34;5072937;28;20457;-78
2021/10/08 02:46:39;;;;;;;8.00;7.20;;;;;;;10.57;100.00;95313.31;5054163;28;20459;-78
2021/10/08 02:49:06;;;;;;;10.57;6.70;;;;;;;10.58;100.00;95317.59;5073201;28;20447;-78
2021/10/08 02:51:33;;;;;;;10.60;7.67;;;;;;;10.48;100.00;95307.00;5072846;28;20817;-78
2021/10/08 02:54:01;;;;;;;8.27;7.43;;;;;;;10.43;100.00;95317.84;5072419;28;20485;-78
2021/10/08 02:56:28;;;;;;;8.97;7.40;;;;;;;10.53;100.00;95316.16;5072697;28;21004;-78
2021/10/08 02:58:55;;;;;;;7.67;6.50;;;;;;;10.54;100.00;95317.84;5072646;28;20468;-78
2021/10/08 03:01:22;;;;;;;11.23;7.83;;;;;;;10.55;100.00;95316.88;5072794;28;20441;-78
2021/10/08 03:03:51;;;;;;;9.93;7.67;;;;;;;10.58;100.00;95315.81;5037282;28;20433;-78
2021/10/08 03:06:18;;;;;;;11.43;7.70;;;;;;;10.61;100.00;95317.34;5072643;28;20495;-78
2021/10/08 03:08:48;;;;;;;10.07;8.60;;;;;;;10.67;100.00;95316.88;5072324;28;20442;-78
2021/10/08 03:11:15;;;;;;;8.17;7.37;;;;;;;10.57;100.00;95326.44;5072276;28;20792;-78
2021/10/08 03:13:42;;;;;;;12.80;8.70;;;;;;;10.57;100.00;95322.00;5072354;28;20447;-78
2021/10/08 03:16:09;;;;;;;8.53;7.60;;;;;;;10.66;100.00;95308.16;5053761;28;20482;-78
2021/10/08 03:18:35;;;;;;;10.43;8.20;;;;;;;10.70;100.00;95309.63;5072464;28;20802;-78
2021/10/08 03:39:23;;;;;;;5.23;4.83;;;;;;;10.66;100.00;95315.19;5133044;27;20910;-85
2021/10/08 03:41:51;;;;;;;6.40;5.03;;;;;;;10.81;100.00;95319.25;5048232;28;20450;-86
2021/10/08 03:44:18;;;;;;;11.23;5.20;;;;;;;10.67;100.00;95316.88;5134835;28;20938;-86
2021/10/08 03:46:49;;;;;;;8.17;5.23;;;;;;;10.67;100.00;95311.63;5134107;28;20442;-87
2021/10/08 03:49:16;;;;;;;7.80;5.27;;;;;;;10.57;100.00;95318.56;5132777;27;20439;-87
2021/10/08 03:51:45;;;;;;;4.20;3.83;;;;;;;10.52;100.00;95319.75;5097151;28;20439;-87
2021/10/08 03:54:12;;;;;;;4.67;4.27;;;;;;;10.58;100.00;95314.97;5132794;28;20447;-86
2021/10/08 03:56:41;;;;;;;7.17;5.50;;;;;;;10.55;100.00;95319.50;5132949;28;20445;-86
2021/10/08 03:59:08;;;;;;;4.77;4.23;;;;;;;10.52;100.00;95308.41;5096983;28;20845;-86
2021/10/08 04:01:36;;;;;;;5.20;4.33;;;;;;;10.52;100.00;95317.13;5132368;28;20442;-86
2021/10/08 04:04:05;;;;;;;6.03;3.60;;;;;;;10.59;100.00;95308.78;5132794;28;20512;-86
2021/10/08 04:06:32;;;;;;;4.63;4.23;;;;;;;10.49;100.00;95313.91;5132471;27;20858;-86
2021/10/08 04:09:00;;;;;;;3.83;3.53;;;;;;;10.52;100.00;95311.88;5132326;27;20505;-87
2021/10/08 04:11:27;;;;;;;4.40;4.00;;;;;;;10.66;100.00;95326.53;5133266;28;20446;-86
2021/10/08 04:13:55;;;;;;;4.57;3.47;;;;;;;10.66;100.00;95323.91;5132683;27;20438;-86
2021/10/08 04:16:22;;;;;;;3.50;3.30;;;;;;;10.66;100.00;95328.31;5132796;28;20445;-86
2021/10/08 04:18:49;;;;;;;3.40;3.10;;;;;;;10.60;100.00;95332.28;5132930;28;20438;-87
2021/10/08 04:21:16;;;;;;;4.83;4.33;;;;;;;10.63;100.00;95328.56;5132973;28;20442;-86
2021/10/08 04:23:44;;;;;;;2.53;2.43;;;;;;;10.59;100.00;95335.00;5132638;28;20804;-87
2021/10/08 04:26:11;;;;;;;3.87;3.20;;;;;;;10.70;100.00;95335.03;5132901;28;20806;-86
2021/10/08 04:28:38;;;;;;;3.20;2.90;;;;;;;10.75;100.00;95336.34;5132528;27;20478;-87
2021/10/08 04:31:06;;;;;;;3.30;2.63;;;;;;;10.89;100.00;95332.63;5132251;27;20445;-88
2021/10/08 04:33:34;;;;;;;3.43;3.20;;;;;;;10.77;100.00;95333.59;5132790;28;20453;-84
2021/10/08 04:36:01;;;;;;;3.07;2.77;;;;;;;10.71;100.00;95339.31;5097177;28;20514;-89
2021/10/08 04:38:30;;;;;;;3.63;3.33;;;;;;;10.81;100.00;95340.25;5130221;28;20483;-84
2021/10/08 04:40:58;;;;;;;3.33;2.93;;;;;;;10.81;100.00;95337.63;5119928;28;20474;-86
2021/10/08 04:43:25;;;;;;;3.30;3.00;;;;;;;10.78;100.00;95332.63;5121377;28;20522;-88
2021/10/08 04:45:52;;;;;;;3.27;3.03;;;;;;;10.77;100.00;95330.97;5118991;28;20463;-87
2021/10/08 04:48:20;;;;;;;3.53;3.23;;;;;;;10.72;100.00;95333.13;5119032;28;20482;-86
2021/10/08 04:50:47;;;;;;;3.17;2.87;;;;;;;10.83;100.00;95333.94;5118092;28;20462;-80
2021/10/08 04:53:17;;;;;;;6.90;3.03;;;;;;;10.90;100.00;95330.81;5118415;28;20449;-86
2021/10/08 04:55:44;;;;;;;4.63;3.90;;;;;;;10.92;100.00;95334.16;5118199;28;20450;-86
2021/10/08 04:58:11;;;;;;;3.90;3.30;;;;;;;11.05;100.00;95327.00;5118024;28;20799;-90
2021/10/08 05:00:38;;;;;;;2.83;2.63;;;;;;;10.96;100.00;95333.78;5117847;28;20446;-87
2021/10/08 05:03:10;;;;;;;3.80;3.03;;;;;;;10.88;100.00;95337.97;5117867;28;20440;-90
2021/10/08 05:05:39;;;;;;;3.67;3.00;;;;;;;10.89;100.00;95327.34;5117518;28;20443;-86
2021/10/08 05:08:06;;;;;;;2.87;2.67;;;;;;;10.88;100.00;95330.09;5117585;28;21073;-85
2021/10/08 05:10:33;;;;;;;4.30;3.10;;;;;;;10.90;100.00;95323.78;5118475;28;20450;-86
2021/10/08 05:13:00;;;;;;;3.23;2.93;;;;;;;10.90;100.00;95325.56;5117186;28;20522;-88
2021/10/08 05:15:28;;;;;;;3.00;2.73;;;;;;;10.86;100.00;95323.19;5117119;28;20444;-90
2021/10/08 05:17:54;;;;;;;3.70;3.40;;;;;;;10.83;100.00;95310.31;5117924;28;20449;-89
2021/10/08 05:20:21;;;;;;;3.30;3.10;;;;;;;10.80;100.00;95323.69;5065538;28;20447;-89
2021/10/08 05:22:50;;;;;;;3.30;3.00;;;;;;;10.84;100.00;95332.16;5117799;28;20948;-88
2021/10/08 05:25:17;;;;;;;8.87;6.23;;;;;;;10.95;100.00;95331.28;5117659;28;20441;-88
2021/10/08 05:27:44;;;;;;;10.53;7.10;;;;;;;10.95;100.00;95334.75;5116973;28;20989;-87
2021/10/08 05:30:12;;;;;;;10.33;6.30;;;;;;;11.01;100.00;95334.28;5117702;28;20519;-87
2021/10/08 05:32:39;;;;;;;9.77;5.00;;;;;;;10.93;100.00;95331.41;5117326;28;20450;-83
2021/10/08 05:35:07;;;;;;;4.90;4.13;;;;;;;10.93;100.00;95339.28;5118192;28;20527;-81
2021/10/08 05:37:34;;;;;;;5.33;4.50;;;;;;;10.89;100.00;95337.88;5118627;28;20949;-87
2021/10/08 05:40:02;;;;;;;5.53;4.97;;;;;;;10.79;100.00;95342.19;5118053;28;20526;-87
2021/10/08 05:42:29;;;;;;;7.60;4.77;;;;;;;10.71;100.00;95336.69;5083197;28;20499;-87
2021/10/08 06:05:41;;;;;;;4.10;3.70;;;;;;;11.26;100.00;95316.53;5131756;27;21051;-78
2021/10/08 06:08:10;;;;;;;5.70;4.93;;;;;;;11.28;100.00;95318.09;5131779;28;20451;-78
2021/10/08 06:10:37;;;;;;;5.77;5.27;;;;;;;11.17;100.00;95321.59;5131885;28;20435;-78
2021/10/08 06:13:04;;;;;;;9.67;4.10;;;;;;;11.02;100.00;95327.25;5131387;28;20442;-76
2021/10/08 06:15:31;;;;;;;8.80;3.67;;;;;;;10.99;100.00;95328.31;5131646;28;20446;-77
2021/10/08 06:17:58;;;;;;;4.10;3.80;;;;;;;11.09;100.00;95333.66;5131371;28;20934;-76
2021/10/08 06:20:26;;;;;;;4.90;3.83;;;;;;;10.95;100.00;95340.00;5131354;28;20438;-76
2021/10/08 06:22:54;;;;;;;4.50;3.43;;;;;;;10.81;100.00;95338.47;5120342;27;20538;-77
2021/10/08 06:25:21;;;;;;;3.73;3.43;;;;;;;10.80;100.00;95330.72;5120535;28;20902;-77
2021/10/08 06:27:51;;;;;;;3.10;2.80;;;;;;;10.71;100.00;95326.19;5110981;27;20851;-77
2021/10/08 06:30:19;;;;;;;3.80;3.50;;;;;;;10.69;100.00;95328.09;5126298;27;20470;-77
2021/10/08 06:32:47;;;;;;;6.13;2.87;;;;;;;10.66;100.00;95329.16;5112303;28;20937;-77
2021/10/08 06:35:14;;;;;;;3.90;3.50;;;;;;;10.60;100.00;95329.66;5110590;28;20486;-77
2021/10/08 06:37:41;;;;;;;4.13;3.73;;;;;;;10.68;100.00;95339.53;5110753;28;20446;-77
2021/10/08 06:40:10;;;;;;;4.50;4.10;;;;;;;10.74;100.00;95342.53;5110273;28;21287;-76
2021/10/08 06:42:38;;;;;;;5.43;3.40;;;;;;;10.76;100.00;95342.41;5111046;28;20534;-77
2021/10/08 06:45:07;;;;;;;4.57;3.53;;;;;;;11.54;100.00;95344.03;5110916;28;20448;-78
2021/10/08 06:47:34;;;;;;;4.20;3.60;;;;;;;11.22;100.00;95342.22;5110390;28;20469;-78
2021/10/08 06:50:01;;;;;;;3.40;3.10;;;;;;;11.04;100.00;95349.78;5110276;28;20445;-77
2021/10/08 06:52:28;;;;;;;4.57;2.90;;;;;;;11.07;100.00;95352.19;5110306;28;20509;-79
2021/10/08 06:54:55;;;;;;;3.63;2.50;;;;;;;10.88;100.00;95349.31;5110497;28;20982;-78
2021/10/08 06:57:23;;;;;;;3.53;3.20;;;;;;;10.81;100.00;95345.50;5110480;28;21029;-79
2021/10/08 06:59:50;;;;;;;6.17;3.30;;;;;;;10.76;100.00;95348.50;5119723;28;20457;-79
2021/10/08 07:02:17;;;;;;;4.30;2.67;;;;;;;10.80;100.00;95360.44;5113947;28;20796;-82
2021/10/08 07:04:44;;;;;;;3.00;2.80;;;;;;;10.85;100.00;95365.31;5064854;28;20483;-82
2021/10/08 07:07:11;;;;;;;3.70;3.40;;;;;;;10.79;100.00;95368.44;5128162;28;20507;-81
2021/10/08 07:09:38;;;;;;;4.27;3.00;;;;;;;10.94;100.00;95361.13;5107044;28;20454;-80
2021/10/08 07:12:06;;;;;;;7.63;3.80;;;;;;;10.88;100.00;95359.81;5096711;28;20535;-80
2021/10/08 07:14:34;;;;;;;7.00;3.00;;;;;;;10.88;100.00;95362.44;5096576;28;21095;-80
2021/10/08 07:17:02;;;;;;;5.18;3.33;;;;;;;11.16;100.00;95361.94;5096613;28;20507;-82
2021/10/08 07:19:30;;;;;;;2.60;2.40;;;;;;;10.95;100.00;95363.63;5100302;28;20202;-82
2021/10/08 07:21:57;;;;;;;3.23;2.93;;;;;;;11.17;100.00;95368.88;5096174;28;20927;-81
2021/10/08 07:24:24;;;;;;;3.80;3.30;;;;;;;11.05;100.00;95374.25;5096440;28;20762;-80
2021/10/08 07:26:51;;;;;;;5.27;2.43;;;;;;;10.90;100.00;95364.94;5044278;28;20447;-81
2021/10/08 07:29:18;;;;;;;3.37;2.60;;;;;;;11.00;100.00;95377.25;5123728;27;20442;-81
2021/10/08 07:31:47;;;;;;;5.67;2.37;;;;;;;10.85;100.00;95389.78;5101040;27;20956;-80
2021/10/08 07:34:14;;;;;;;3.60;2.67;;;;;;;10.93;100.00;95378.66;5083969;27;20480;-80
2021/10/08 07:36:41;;;;;;;2.70;2.10;;;;;;;10.93;100.00;95377.84;5137390;27;20949;-79
2021/10/08 07:39:08;;;;;;;2.17;1.90;;;;;;;10.90;100.00;95392.03;5138054;27;20449;-80
2021/10/08 07:41:35;;;;;;;2.20;2.00;;;;;;;10.86;100.00;95396.69;5137548;27;20445;-81
2021/10/08 07:44:02;;;;;;;6.57;2.80;;;;;;;10.78;100.00;95399.09;5137552;27;20449;-81
2021/10/08 07:46:29;;;;;;;3.20;2.90;;;;;;;10.78;100.00;95404.34;5137073;27;20768;-81
2021/10/08 07:48:57;;;;;;;4.23;2.80;;;;;;;10.85;100.00;95409.94;5136735;27;20445;-82
2021/10/08 07:51:24;;;;;;;2.60;2.40;;;;;;;11.08;100.00;95414.25;5137117;27;20529;-82
2021/10/08 07:53:51;;;;;;;2.77;2.53;;;;;;;11.01;100.00;95426.19;5136649;27;20488;-82
2021/10/08 07:56:18;;;;;;;9.00;3.03;;;;;;;10.99;100.00;95422.84;5136727;27;20442;-82
2021/10/08 07:58:45;;;;;;;5.10;3.43;;;;;;;11.07;100.00;95428.34;5136685;27;20902;-84
2021/10/08 08:01:12;;;;;;;3.90;2.50;;;;;;;11.06;100.00;95426.66;5136216;27;20447;-79
2021/10/08 08:03:39;;;;;;;2.23;2.03;;;;;;;11.15;100.00;95432.97;5136562;27;20532;-80
2021/10/08 08:06:08;;;;;;;3.70;3.10;;;;;;;11.09;100.00;95428.22;5136680;27;20454;-79
2021/10/08 08:08:35;;;;;;;4.10;2.90;;;;;;;11.25;100.00;95433.09;5136729;27;20454;-79
2021/10/08 08:11:02;;;;;;;5.87;2.60;;;;;;;11.33;100.00;95428.91;5136597;27;20444;-80
2021/10/08 08:13:29;;;;;;;3.27;2.97;;;;;;;11.22;100.00;95438.59;5136307;27;20447;-79
2021/10/08 08:15:56;;;;;;;5.87;2.30;;;;;;;11.03;100.00;95437.41;5083780;27;20460;-80
2021/10/08 08:18:23;;;;;;;4.23;2.80;;;;;;;11.13;100.00;95429.63;5135019;27;20453;-80
2021/10/08 08:20:49;;;;;;;4.63;2.90;;;;;;;11.00;100.00;95418.44;5136127;27;20446;-80
2021/10/08 08:23:18;;;;;;;6.40;3.50;;;;;;;10.98;100.00;95428.19;5135217;27;20952;-79
2021/10/08 08:25:45;;;;;;;7.60;3.60;;;;;;;11.15;100.00;95418.06;5135312;27;20435;-79
2021/10/08 08:28:12;;;;;;;5.37;3.80;;;;;;;11.25;100.00;95425.19;5131846;27;20436;-79
2021/10/08 08:30:40;;;;;;;5.57;3.17;;;;;;;11.36;100.00;95433.09;5114789;28;20454;-79
2021/10/08 08:33:08;;;;;;;3.83;3.30;;;;;;;11.40;100.00;95445.84;5115337;28;20778;-80
2021/10/08 08:35:35;;;;;;;5.17;4.67;;;;;;;11.34;100.00;95443.72;5114585;28;20485;-80
2021/10/08 08:38:02;;;;;;;7.77;4.33;;;;;;;11.43;100.00;95450.03;5096230;28;20443;-79
2021/10/08 08:40:31;;;;;;;9.10;6.50;;;;;;;11.58;100.00;95448.00;5115486;28;20800;-79
2021/10/08 08:42:59;;;;;;;8.10;4.90;;;;;;;11.70;100.00;95468.88;5115105;28;20446;-79
2021/10/08 09:01:09;;;;;;;8.10;3.40;;;;;;;12.45;100.00;95457.53;5132183;27;20884;-77
2021/10/08 09:03:36;;;;;;;4.23;3.33;;;;;;;12.41;100.00;95456.91;5132003;27;20431;-76
2021/10/08 09:06:03;;;;;;;5.00;4.50;;;;;;;12.43;100.00;95453.31;5131760;27;20804;-75
2021/10/08 09:08:34;;;;;;;3.30;3.00;;;;;;;12.37;100.00;95449.41;5131371;27;20435;-76
2021/10/08 09:11:05;;;;;;;4.33;2.70;;;;;;;12.33;100.00;95443.56;5131914;27;20543;-76
2021/10/08 09:13:32;;;;;;;4.70;2.77;;;;;;;12.30;100.00;95443.81;5132385;27;20435;-76
2021/10/08 09:16:03;;;;;;;2.83;2.10;;;;;;;12.28;100.00;95437.84;5112922;28;20847;-75
2021/10/08 09:18:33;;;;;;;3.77;2.40;;;;;;;12.25;100.00;95445.19;5131984;27;20522;-75
2021/10/08 09:21:06;;;;;;;3.47;2.63;;;;;;;12.24;100.00;95446.97;5131495;27;20847;-75
2021/10/08 09:23:34;;;;;;;3.67;3.17;;;;;;;12.22;100.00;95448.91;5131522;27;20430;-77
2021/10/08 09:26:02;;;;;;;2.93;2.40;;;;;;;12.24;100.00;95452.22;5131612;27;20445;-77
2021/10/08 09:28:30;;;;;;;4.47;2.60;;;;;;;12.29;100.00;95463.22;5131858;27;20452;-77
2021/10/08 09:30:57;;;;;;;2.43;2.23;;;;;;;12.31;100.00;95463.91;5131350;27;20439;-75
2021/10/08 09:33:28;;;;;;;3.20;2.90;;;;;;;12.33;100.00;95469.06;5131609;27;20934;-77
2021/10/08 09:35:59;;;;;;;7.57;5.00;;;;;;;12.32;100.00;95470.84;5131668;27;20790;-76
2021/10/08 09:38:28;;;;;;;5.57;4.73;;;;;;;12.37;100.00;95468.66;5131368;27;20851;-76
2021/10/08 09:40:59;;;;;;;7.87;5.23;;;;;;;12.37;100.00;95463.41;5130966;27;20430;-77
2021/10/08 09:43:27;;;;;;;10.17;6.37;;;;;;;12.36;100.00;95468.78;5131829;27;20572;-76
2021/10/08 09:45:57;;;;;;;8.27;5.93;;;;;;;12.38;100.00;95466.88;5131669;27;20440;-77
2021/10/08 09:48:25;;;;;;;7.57;5.13;;;;;;;12.40;100.00;95457.88;5132378;27;20446;-76
2021/10/08 09:51:03;;;;;;;9.63;5.10;;;;;;;12.41;100.00;95461.34;5131608;27;20489;-75
2021/10/08 09:53:32;;;;;;;10.63;6.70;;;;;;;12.13;100.00;95459.31;5131396;27;20798;-76
2021/10/08 09:55:59;;;;;;;11.33;6.50;;;;;;;12.18;100.00;95473.78;5131155;27;20800;-77
2021/10/08 09:58:26;;;;;;;14.53;7.57;;;;;;;12.22;100.00;95479.63;5131152;27;20434;-75
2021/10/08 10:01:07;;;;;;;8.20;7.30;;;;;;;12.22;100.00;95475.22;5125118;27;20889;-77
2021/10/08 10:03:34;;;;;;;12.10;6.37;;;;;;;12.26;100.00;95473.16;5117511;28;20439;-77
2021/10/08 10:06:04;;;;;;;13.33;8.40;;;;;;;12.23;100.00;95468.97;5118435;28;20539;-75
2021/10/08 10:08:31;;;;;;;9.27;6.63;;;;;;;12.31;100.00;95456.03;5116689;28;21015;-78
2021/10/08 10:11:00;;;;;;;19.63;10.50;;;;;;;12.30;100.00;95459.63;5116745;28;20593;-78
2021/10/08 10:13:31;;;;;;;10.93;8.03;;;;;;;12.30;100.00;95449.09;5116711;28;20479;-77
2021/10/08 10:16:00;;;;;;;11.73;5.57;;;;;;;12.26;100.00;95447.69;5116803;28;20815;-78
2021/10/08 10:18:27;;;;;;;6.70;4.10;;;;;;;12.06;100.00;95441.41;5116944;28;20439;-77
2021/10/08 10:20:54;;;;;;;7.00;5.37;;;;;;;11.85;100.00;95429.16;5116742;28;20454;-76
2021/10/08 10:23:24;;;;;;;11.20;6.43;;;;;;;11.88;100.00;95427.16;5116049;28;20522;-76
2021/10/08 10:25:53;;;;;;;5.83;4.07;;;;;;;11.87;100.00;95424.66;5116840;28;20451;-77
2021/10/08 10:28:21;;;;;;;7.83;3.10;;;;;;;11.86;100.00;95423.81;5116714;28;20950;-77
2021/10/08 10:30:50;;;;;;;2.77;2.37;;;;;;;11.87;100.00;95422.03;5116283;28;20501;-77
2021/10/08 10:33:24;;;;;;;2.00;1.90;;;;;;;11.84;100.00;95409.09;5116314;28;20447;-77
2021/10/08 10:35:52;;;;;;;4.57;3.03;;;;;;;11.87;100.00;95387.84;5117046;28;20541;-77
2021/10/08 10:38:36;;;;;;;12.33;9.50;;;;;;;11.83;100.00;95366.19;5116317;27;20780;-77
2021/10/08 10:41:24;;;;;;;11.03;8.93;;;;;;;11.77;100.00;95372.75;5116624;28;20530;-77
2021/10/08 10:43:57;;;;;;;4.40;4.00;;;;;;;11.83;100.00;95381.13;5116140;28;20451;-78
2021/10/08 10:46:38;;;;;;;4.90;4.43;;;;;;;11.90;100.00;95384.94;5097477;28;20428;-77
2021/10/08 10:52:27;;;;;;;4.10;2.80;;;;;;;11.88;100.00;95394.75;5115948;27;20424;-77
2021/10/08 10:55:03;;;;;;;5.70;3.00;;;;;;;11.76;100.00;95394.75;5115711;28;20526;-77
2021/10/08 10:58:05;;;;;;;3.83;3.40;;;;;;;11.75;100.00;95408.84;5115831;28;20457;-77
2021/10/08 11:00:46;;;;;;;2.80;2.60;;;;;;;11.82;100.00;95411.00;5115580;28;20490;-77
2021/10/08 11:03:19;;;;;;;4.63;3.97;;;;;;;11.72;100.00;95408.28;5115821;28;20448;-77
2021/10/08 11:06:09;;;;;;;7.40;5.60;;;;;;;11.77;100.00;95404.31;5097018;28;20546;-77
2021/10/08 11:08:37;;;;;;;2.27;2.00;;;;;;;11.58;100.00;95405.94;5116030;28;20534;-77
2021/10/08 11:11:19;;;;;;;2.70;2.47;;;;;;;11.60;100.00;95394.34;5115085;27;20845;-78
2021/10/08 11:13:49;;;;;;;4.93;4.43;;;;;;;11.56;100.00;95408.66;5114655;28;20531;-77
2021/10/08 11:16:30;;;;;;;3.23;3.03;;;;;;;11.63;100.00;95406.41;5116590;28;20455;-75
2021/10/08 11:18:57;;;;;;;5.03;3.50;;;;;;;11.67;100.00;95407.81;5116446;28;20443;-76
2021/10/08 11:21:47;;;;;;;4.80;2.80;;;;;;;11.56;100.00;95399.94;5116060;28;21168;-76
2021/10/08 11:24:16;;;;;;;2.57;2.37;;;;;;;11.71;100.00;95393.47;5115547;28;20428;-76
2021/10/08 11:26:51;;;;;;;3.00;2.37;;;;;;;11.59;100.00;95402.34;5115091;28;20450;-76
2021/10/08 11:29:18;;;;;;;4.60;2.03;;;;;;;11.52;100.00;95404.63;5115658;28;20440;-76
2021/10/08 11:31:46;;;;;;;3.80;2.00;;;;;;;11.40;100.00;95400.34;5115516;28;20835;-76
2021/10/08 11:34:16;;;;;;;4.10;2.63;;;;;;;11.55;100.00;95401.75;5115373;28;20927;-75
2021/10/08 11:36:56;;;;;;;3.70;2.43;;;;;;;11.56;100.00;95405.19;5115832;28;20412;-77
2021/10/08 11:39:23;;;;;;;1.93;1.80;;;;;;;11.57;100.00;95396.38;5115532;28;20929;-78
2021/10/08 11:42:07;;;;;;;2.07;1.73;;;;;;;11.57;100.00;95401.66;5115436;28;20448;-77
2021/10/08 11:44:38;;;;;;;1.90;1.70;;;;;;;11.51;100.00;95397.69;5115752;28;20455;-77
2021/10/08 11:47:20;;;;;;;3.20;1.90;;;;;;;11.51;100.00;95395.06;5115299;28;20438;-77
2021/10/08 11:52:43;;;;;;;2.73;2.53;;;;;;;11.71;100.00;95386.41;5115408;28;20424;-78
2021/10/08 11:55:16;;;;;;;6.33;4.37;;;;;;;11.71;100.00;95385.56;5106187;28;20448;-76
2021/10/08 11:58:07;;;;;;;6.77;4.43;;;;;;;11.81;100.00;95388.31;5094353;28;20984;-77
2021/10/08 12:00:36;;;;;;;5.77;4.43;;;;;;;11.71;100.00;95391.66;5094577;28;20885;-77
2021/10/08 12:03:09;;;;;;;4.90;2.73;;;;;;;11.77;100.00;95392.97;5094577;28;20448;-77
2021/10/08 12:05:48;;;;;;;6.20;2.97;;;;;;;11.89;100.00;95407.78;5094072;28;20458;-77
2021/10/08 12:08:17;;;;;;;7.33;3.37;;;;;;;11.97;100.00;95394.00;5094998;28;20448;-77
2021/10/08 12:10:59;;;;;;;5.83;2.60;;;;;;;11.86;100.00;95391.44;5095131;28;21128;-77
2021/10/08 12:13:44;;;;;;;4.37;3.13;;;;;;;11.94;100.00;95396.88;5094666;28;20518;-76
2021/10/08 12:16:11;;;;;;;6.03;3.50;;;;;;;11.86;100.00;95381.75;5032743;28;20447;-77
2021/10/08 12:18:47;;;;;;;3.50;3.20;;;;;;;11.89;100.00;95385.91;5042909;28;20579;-77
2021/10/08 12:21:16;;;;;;;8.43;4.43;;;;;;;11.87;100.00;95386.03;5052331;28;20945;-77
2021/10/08 12:23:43;;;;;;;5.40;3.93;;;;;;;11.96;100.00;95381.81;5018788;28;20448;-77
2021/10/08 12:26:12;;;;;;;8.40;5.00;;;;;;;12.00;100.00;95381.44;5051814;28;20466;-75
2021/10/08 12:28:39;;;;;;;9.93;4.50;;;;;;;11.91;100.00;95381.34;5018972;28;20434;-75
2021/10/08 12:31:09;;;;;;;3.77;2.80;;;;;;;11.82;100.00;95380.28;5051557;28;20484;-77
2021/10/08 12:33:39;;;;;;;2.63;2.43;;;;;;;11.67;100.00;95384.16;5051541;28;20451;-77